createdAt,value
2023-03-25T00:01:47.781Z,4.57
2023-03-25T00:04:17.821Z,4.25
2023-03-25T00:06:46.006Z,4.15
2023-03-25T00:09:16.754Z,4.13
2023-03-25T00:11:44.371Z,3.80
2023-03-25T00:14:12.451Z,1.52
2023-03-25T00:16:40.190Z,0.77
2023-03-25T00:19:09.374Z,0.55
2023-03-25T00:21:37.532Z,0.90
2023-03-25T00:24:05.394Z,0.90
2023-03-25T00:26:33.055Z,0.47
2023-03-25T00:29:00.604Z,0.52
2023-03-25T00:31:28.211Z,0.40
2023-03-25T00:33:58.235Z,0.60
2023-03-25T00:36:26.062Z,0.50
2023-03-25T00:38:53.756Z,0.70
2023-03-25T00:41:25.718Z,0.75
2023-03-25T00:43:56.491Z,0.50
2023-03-25T00:46:27.514Z,1.25
2023-03-25T00:48:56.460Z,0.90
2023-03-25T00:51:26.225Z,0.82
2023-03-25T00:53:56.543Z,0.90
2023-03-25T00:56:24.752Z,2.15
2023-03-25T00:58:52.588Z,0.98
2023-03-25T01:01:29.238Z,0.77
2023-03-25T01:04:00.318Z,0.50
2023-03-25T01:06:37.568Z,1.40
2023-03-25T01:09:07.415Z,1.10
2023-03-25T01:11:38.920Z,0.80
2023-03-25T01:14:09.549Z,1.00
2023-03-25T01:16:38.159Z,1.38
2023-03-25T01:19:05.880Z,1.13
2023-03-25T01:21:35.233Z,1.25
2023-03-25T01:24:08.071Z,1.92
2023-03-25T01:26:37.986Z,2.03
2023-03-25T01:29:06.364Z,1.77
2023-03-25T01:31:34.225Z,1.75
2023-03-25T01:34:02.443Z,1.90
2023-03-25T01:36:30.756Z,1.65
2023-03-25T01:38:59.740Z,2.03
2023-03-25T01:41:42.308Z,2.00
2023-03-25T01:44:22.605Z,2.78
2023-03-25T01:46:54.124Z,1.40
2023-03-25T01:49:39.126Z,1.90
2023-03-25T01:52:21.496Z,1.60
2023-03-25T01:54:52.342Z,1.48
2023-03-25T01:57:22.592Z,1.60
2023-03-25T01:59:52.093Z,1.35
2023-03-25T02:02:20.881Z,1.58
2023-03-25T02:05:04.009Z,1.52
2023-03-25T02:07:35.393Z,1.52
2023-03-25T02:10:08.248Z,1.80
2023-03-25T02:12:36.218Z,1.70
2023-03-25T02:15:07.647Z,1.67
2023-03-25T02:17:47.827Z,1.40
2023-03-25T02:20:24.590Z,1.13
2023-03-25T02:23:28.492Z,1.58
2023-03-25T02:26:14.516Z,1.23
2023-03-25T02:28:56.363Z,1.90
2023-03-25T02:31:59.401Z,2.60
2023-03-25T02:37:47.207Z,2.97
2023-03-25T02:40:29.218Z,2.80
2023-03-25T02:43:03.798Z,2.55
2023-03-25T02:45:44.235Z,2.60
2023-03-25T02:48:23.735Z,2.17
2023-03-25T02:50:55.789Z,2.55
2023-03-25T02:53:28.970Z,2.75
2023-03-25T02:56:01.959Z,2.50
2023-03-25T02:58:31.058Z,2.55
2023-03-25T03:00:59.116Z,3.10
2023-03-25T03:03:27.835Z,2.80
2023-03-25T03:06:04.931Z,2.50
2023-03-25T03:08:59.457Z,3.03
2023-03-25T03:11:41.861Z,2.72
2023-03-25T03:14:18.309Z,2.13
2023-03-25T03:16:58.539Z,2.33
2023-03-25T03:19:46.286Z,2.10
2023-03-25T03:22:35.404Z,1.88
2023-03-25T03:25:20.136Z,2.25
2023-03-25T03:27:56.933Z,2.25
2023-03-25T03:30:33.507Z,2.20
2023-03-25T03:33:25.665Z,3.92
2023-03-25T03:35:57.607Z,3.03
2023-03-25T03:38:28.478Z,2.78
2023-03-25T03:41:01.825Z,3.80
2023-03-25T03:43:45.351Z,3.53
2023-03-25T03:46:27.470Z,2.97
2023-03-25T03:48:57.625Z,3.97
2023-03-25T03:51:39.000Z,3.05
2023-03-25T03:54:17.143Z,2.95
2023-03-25T03:56:54.278Z,3.65
2023-03-25T03:59:49.928Z,3.85
2023-03-25T04:02:34.720Z,3.47
2023-03-25T04:05:02.585Z,2.67
2023-03-25T04:07:43.204Z,2.50
2023-03-25T04:10:23.369Z,1.90
2023-03-25T04:12:54.147Z,2.33
2023-03-25T04:15:22.014Z,2.13
2023-03-25T04:17:49.722Z,2.72
2023-03-25T04:20:23.983Z,1.73
2023-03-25T04:22:52.534Z,1.73
2023-03-25T04:25:25.599Z,2.10
2023-03-25T04:27:53.989Z,1.60
2023-03-25T04:30:21.685Z,1.15
2023-03-25T04:32:49.309Z,1.33
2023-03-25T04:35:18.527Z,1.33
2023-03-25T04:37:49.110Z,1.63
2023-03-25T04:40:18.984Z,1.73
2023-03-25T04:42:47.257Z,1.65
2023-03-25T04:45:17.104Z,1.83
2023-03-25T04:47:47.370Z,1.10
2023-03-25T04:50:28.198Z,1.10
2023-03-25T04:52:57.699Z,1.27
2023-03-25T04:55:25.933Z,1.50
2023-03-25T04:57:54.792Z,1.60
2023-03-25T05:00:24.640Z,1.02
2023-03-25T05:02:54.952Z,1.30
2023-03-25T05:05:24.819Z,0.90
2023-03-25T05:07:54.742Z,0.90
2023-03-25T05:10:24.899Z,0.93
2023-03-25T05:13:02.065Z,1.00
2023-03-25T05:15:32.917Z,0.93
2023-03-25T05:18:02.098Z,0.90
2023-03-25T05:20:30.942Z,0.93
2023-03-25T05:22:58.613Z,0.88
2023-03-25T05:25:26.257Z,1.05
2023-03-25T05:27:54.560Z,7.13
2023-03-25T05:30:22.222Z,1.58
2023-03-25T05:32:56.266Z,0.90
2023-03-25T05:35:26.779Z,0.98
2023-03-25T05:37:55.981Z,0.88
2023-03-25T05:40:24.062Z,2.20
2023-03-25T05:42:54.823Z,1.30
2023-03-25T05:45:23.590Z,1.52
2023-03-25T05:47:51.268Z,3.05
2023-03-25T05:50:18.942Z,1.70
2023-03-25T05:52:49.654Z,1.48
2023-03-25T05:55:20.682Z,2.13
2023-03-25T05:57:49.532Z,1.17
2023-03-25T06:00:23.729Z,1.10
2023-03-25T06:02:52.362Z,1.20
2023-03-25T06:05:23.822Z,1.35
2023-03-25T06:07:56.346Z,0.77
2023-03-25T06:10:25.137Z,1.25
2023-03-25T06:12:54.355Z,0.80
2023-03-25T06:15:29.241Z,0.93
2023-03-25T06:17:57.789Z,0.82
2023-03-25T06:20:25.948Z,1.70
2023-03-25T06:22:53.605Z,2.13
2023-03-25T06:25:21.611Z,1.23
2023-03-25T06:27:50.652Z,1.80
2023-03-25T06:30:20.904Z,1.00
2023-03-25T06:32:50.979Z,1.42
2023-03-25T06:35:20.721Z,1.40
2023-03-25T06:37:49.291Z,2.08
2023-03-25T06:40:38.835Z,1.63
2023-03-25T06:43:08.438Z,1.40
2023-03-25T06:46:09.450Z,1.25
2023-03-25T06:48:59.898Z,0.52
2023-03-25T06:51:27.522Z,0.75
2023-03-25T06:53:55.173Z,0.80
2023-03-25T06:56:22.956Z,1.23
2023-03-25T06:58:50.615Z,1.85
2023-03-25T07:01:18.246Z,1.50
2023-03-25T07:03:46.047Z,1.90
2023-03-25T07:06:18.203Z,1.67
2023-03-25T07:08:46.107Z,1.88
2023-03-25T07:11:15.512Z,1.33
2023-03-25T07:13:43.245Z,1.63
2023-03-25T07:16:11.669Z,1.35
2023-03-25T07:18:42.302Z,1.15
2023-03-25T07:21:10.198Z,2.10
2023-03-25T07:23:37.789Z,1.00
2023-03-25T07:26:06.076Z,1.10
2023-03-25T07:28:33.928Z,1.23
2023-03-25T07:31:01.673Z,1.60
2023-03-25T07:33:29.273Z,1.58
2023-03-25T07:35:56.897Z,0.93
2023-03-25T07:38:24.853Z,1.00
2023-03-25T07:40:52.371Z,6.40
2023-03-25T07:43:20.032Z,1.83
2023-03-25T07:45:56.359Z,1.27
2023-03-25T07:48:25.136Z,1.25
2023-03-25T07:50:53.064Z,2.45
2023-03-25T07:53:20.915Z,1.02
2023-03-25T07:55:51.304Z,1.50
2023-03-25T07:58:19.354Z,1.80
2023-03-25T08:00:47.144Z,1.80
2023-03-25T08:03:15.787Z,1.90
2023-03-25T08:05:48.397Z,1.73
2023-03-25T08:08:16.108Z,1.40
2023-03-25T08:10:44.879Z,1.20
2023-03-25T08:13:12.437Z,1.20
2023-03-25T08:15:40.842Z,1.23
2023-03-25T08:18:08.517Z,1.50
2023-03-25T08:20:36.565Z,1.00
2023-03-25T08:23:04.492Z,1.52
2023-03-25T08:25:32.014Z,1.08
2023-03-25T08:27:59.614Z,1.00
2023-03-25T08:30:27.213Z,1.10
2023-03-25T08:32:55.457Z,1.15
2023-03-25T08:35:24.342Z,1.30
2023-03-25T08:37:52.183Z,1.23
2023-03-25T08:40:20.244Z,1.00
2023-03-25T08:42:47.765Z,1.23
2023-03-25T08:45:15.651Z,1.50
2023-03-25T08:47:44.005Z,1.00
2023-03-25T08:50:12.823Z,1.35
2023-03-25T08:52:41.280Z,1.40
2023-03-25T08:55:12.304Z,0.70
2023-03-25T08:57:40.177Z,1.20
2023-03-25T09:00:14.289Z,0.60
2023-03-25T09:02:43.293Z,4.15
2023-03-25T09:05:12.962Z,1.63
2023-03-25T09:07:40.711Z,1.55
2023-03-25T09:10:08.889Z,1.15
2023-03-25T09:12:37.144Z,2.15
2023-03-25T09:15:05.364Z,0.90
2023-03-25T09:17:33.079Z,0.70
2023-03-25T09:20:00.880Z,1.75
2023-03-25T09:22:28.543Z,1.00
2023-03-25T09:24:56.238Z,1.05
2023-03-25T09:27:24.270Z,0.85
2023-03-25T09:29:51.798Z,1.05
2023-03-25T09:32:19.500Z,0.82
2023-03-25T09:34:47.280Z,0.80
2023-03-25T09:37:14.901Z,0.80
2023-03-25T09:39:42.904Z,0.77
2023-03-25T09:42:35.482Z,1.33
2023-03-25T09:45:11.977Z,0.80
2023-03-25T09:47:44.688Z,1.13
2023-03-25T09:50:16.213Z,0.93
2023-03-25T09:53:27.773Z,0.98
2023-03-25T09:55:55.891Z,1.40
2023-03-25T09:58:43.620Z,0.95
2023-03-25T10:01:49.613Z,1.15
2023-03-25T10:04:46.910Z,1.45
2023-03-25T10:07:26.439Z,1.25
2023-03-25T10:10:20.641Z,1.27
2023-03-25T10:13:07.668Z,1.48
2023-03-25T10:15:49.354Z,0.90
2023-03-25T10:18:29.230Z,1.05
2023-03-25T10:21:01.765Z,0.80
2023-03-25T10:23:34.802Z,0.60
2023-03-25T10:26:30.876Z,0.90
2023-03-25T10:29:06.708Z,1.02
2023-03-25T10:31:47.275Z,0.90
2023-03-25T10:34:19.091Z,1.15
2023-03-25T10:36:58.198Z,1.55
2023-03-25T10:39:37.394Z,2.15
2023-03-25T10:42:22.657Z,1.20
2023-03-25T10:44:50.796Z,1.50
2023-03-25T10:47:23.458Z,1.50
2023-03-25T10:49:52.583Z,2.40
2023-03-25T10:52:21.084Z,2.40
2023-03-25T10:54:54.522Z,2.45
2023-03-25T10:57:32.957Z,1.60
2023-03-25T11:00:29.458Z,1.75
2023-03-25T11:02:57.329Z,3.50
2023-03-25T11:05:28.651Z,12.13
2023-03-25T11:08:18.142Z,2.20
2023-03-25T11:10:57.428Z,1.40
2023-03-25T11:13:30.035Z,2.33
2023-03-25T11:16:03.700Z,1.67
2023-03-25T11:18:41.082Z,1.33
2023-03-25T11:21:12.929Z,1.65
2023-03-25T11:23:52.001Z,1.58
2023-03-25T11:26:23.780Z,0.93
2023-03-25T11:28:56.156Z,1.60
2023-03-25T11:34:11.486Z,1.08
2023-03-25T11:36:47.199Z,3.95
2023-03-25T11:39:34.478Z,2.60
2023-03-25T11:42:17.444Z,1.48
2023-03-25T11:44:56.930Z,1.10
2023-03-25T11:47:38.068Z,1.60
2023-03-25T11:50:07.068Z,1.50
2023-03-25T11:52:45.596Z,1.00
2023-03-25T11:55:37.740Z,1.08
2023-03-25T11:58:06.249Z,1.00
2023-03-25T12:00:39.768Z,0.98
2023-03-25T12:03:20.311Z,1.15
2023-03-25T12:06:23.844Z,0.85
2023-03-25T12:08:56.667Z,1.42
2023-03-25T12:11:32.702Z,0.77
2023-03-25T12:14:21.503Z,0.98
2023-03-25T12:17:24.355Z,1.00
2023-03-25T12:22:53.807Z,1.02
2023-03-25T12:25:42.860Z,0.93
2023-03-25T12:28:30.713Z,1.77
2023-03-25T12:31:11.584Z,0.82
2023-03-25T12:33:54.461Z,0.88
2023-03-25T12:36:31.310Z,1.02
2023-03-25T12:39:42.287Z,1.23
2023-03-25T12:42:29.402Z,1.38
2023-03-25T12:44:57.134Z,2.00
2023-03-25T12:47:32.112Z,1.35
2023-03-25T12:49:59.779Z,0.63
2023-03-25T12:52:54.259Z,1.45
2023-03-25T12:55:28.031Z,1.05
2023-03-25T12:58:02.050Z,1.17
2023-03-25T13:00:44.315Z,1.70
2023-03-25T13:03:44.184Z,1.38
2023-03-25T13:06:26.854Z,2.38
2023-03-25T13:09:04.692Z,2.70
2023-03-25T13:11:55.004Z,1.00
2023-03-25T13:14:56.423Z,2.80
2023-03-25T13:17:40.510Z,7.00
2023-03-25T13:20:11.111Z,3.60
2023-03-25T13:22:46.898Z,1.73
2023-03-25T13:25:43.134Z,2.08
2023-03-25T13:28:17.102Z,5.65
2023-03-25T13:30:48.333Z,3.67
2023-03-25T13:33:31.232Z,1.30
2023-03-25T13:36:26.078Z,1.38
2023-03-25T13:39:20.798Z,1.10
2023-03-25T13:41:53.539Z,2.00
2023-03-25T13:44:41.708Z,2.10
2023-03-25T13:47:19.514Z,2.60
2023-03-25T13:50:00.721Z,1.88
2023-03-25T13:52:34.459Z,2.05
2023-03-25T13:55:18.260Z,1.10
2023-03-25T13:58:19.716Z,1.20
2023-03-25T14:01:11.545Z,0.90
2023-03-25T14:03:58.710Z,1.42
2023-03-25T14:07:10.190Z,1.15
2023-03-25T14:10:11.722Z,0.80
2023-03-25T14:13:05.046Z,1.27
2023-03-25T14:15:52.296Z,1.95
2023-03-25T14:18:20.963Z,1.30
2023-03-25T14:20:50.564Z,0.60
2023-03-25T14:23:22.712Z,0.82
2023-03-25T14:25:58.706Z,0.82
2023-03-25T14:28:43.225Z,1.20
2023-03-25T14:31:32.302Z,1.30
2023-03-25T14:34:00.147Z,1.02
2023-03-25T14:36:32.357Z,1.08
2023-03-25T14:39:00.120Z,1.10
2023-03-25T14:42:05.826Z,1.77
2023-03-25T14:44:41.463Z,0.93
2023-03-25T14:47:21.058Z,1.20
2023-03-25T14:49:54.638Z,0.82
2023-03-25T14:52:31.118Z,4.72
2023-03-25T14:55:05.243Z,3.17
2023-03-25T14:57:42.512Z,1.85
2023-03-25T15:00:20.916Z,0.95
2023-03-25T15:02:59.829Z,1.58
2023-03-25T15:05:31.309Z,0.77
2023-03-25T15:08:17.585Z,1.35
2023-03-25T15:11:08.915Z,0.77
2023-03-25T15:13:40.538Z,1.23
2023-03-25T15:16:19.082Z,0.60
2023-03-25T15:18:49.582Z,1.42
2023-03-25T15:21:17.597Z,1.10
2023-03-25T15:23:47.614Z,1.30
2023-03-25T15:26:41.026Z,1.50
2023-03-25T15:29:18.431Z,0.65
2023-03-25T15:31:52.543Z,1.00
2023-03-25T15:34:20.184Z,0.93
2023-03-25T15:36:53.789Z,0.52
2023-03-25T15:39:37.395Z,1.38
2023-03-25T15:42:45.952Z,1.05
2023-03-25T15:45:31.781Z,0.40
2023-03-25T15:48:02.345Z,0.85
2023-03-25T15:51:05.500Z,0.77
2023-03-25T15:53:43.139Z,0.70
2023-03-25T15:56:17.271Z,4.32
2023-03-25T15:58:51.976Z,1.50
2023-03-25T16:01:31.510Z,1.75
2023-03-25T16:04:10.596Z,1.73
2023-03-25T16:06:44.968Z,2.08
2023-03-25T16:09:20.558Z,0.90
2023-03-25T16:11:48.258Z,1.63
2023-03-25T16:14:18.739Z,4.97
2023-03-25T16:16:51.943Z,4.00
2023-03-25T16:19:28.938Z,3.85
2023-03-25T16:22:01.422Z,1.63
2023-03-25T16:27:23.749Z,0.98
2023-03-25T16:29:54.220Z,2.65
2023-03-25T16:32:25.770Z,1.90
2023-03-25T16:34:54.145Z,1.67
2023-03-25T16:37:22.704Z,1.17
2023-03-25T16:39:53.531Z,1.17
2023-03-25T16:42:35.610Z,0.82
2023-03-25T16:45:04.226Z,2.38
2023-03-25T16:47:33.983Z,2.50
2023-03-25T16:50:02.856Z,2.08
2023-03-25T16:52:34.263Z,1.00
2023-03-25T16:55:01.992Z,1.33
2023-03-25T16:57:35.143Z,1.60
2023-03-25T17:00:19.629Z,1.73
2023-03-25T17:02:49.915Z,2.78
2023-03-25T17:05:24.125Z,5.78
2023-03-25T17:08:05.345Z,3.22
2023-03-25T17:10:49.568Z,4.60
2023-03-25T17:13:24.959Z,9.82
2023-03-25T17:15:54.850Z,11.52
2023-03-25T17:18:29.086Z,8.65
2023-03-25T17:21:01.845Z,6.25
2023-03-25T17:23:41.857Z,5.40
2023-03-25T17:26:13.083Z,5.60
2023-03-25T17:28:58.637Z,7.75
2023-03-25T17:31:41.537Z,7.43
2023-03-25T17:34:22.310Z,10.13
2023-03-25T17:36:58.684Z,9.90
2023-03-25T17:39:34.609Z,2.60
2023-03-25T17:42:08.890Z,9.38
2023-03-25T17:44:45.186Z,16.63
2023-03-25T17:47:16.633Z,10.18
2023-03-25T17:49:44.840Z,4.03
2023-03-25T17:52:12.925Z,4.80
2023-03-25T17:54:41.521Z,10.52
2023-03-25T17:57:17.863Z,2.33
2023-03-25T17:59:47.348Z,2.80
2023-03-25T18:02:17.048Z,1.40
2023-03-25T18:04:45.391Z,3.25
2023-03-25T18:07:13.647Z,2.42
2023-03-25T18:09:42.375Z,1.20
2023-03-25T18:12:12.481Z,3.17
2023-03-25T18:14:42.621Z,1.52
2023-03-25T18:17:13.962Z,0.93
2023-03-25T18:19:42.367Z,0.70
2023-03-25T18:22:19.941Z,0.73
2023-03-25T18:24:48.218Z,1.15
2023-03-25T18:27:17.691Z,1.17
2023-03-25T18:29:46.030Z,4.07
2023-03-25T18:32:14.221Z,12.52
2023-03-25T18:34:42.842Z,13.05
2023-03-25T18:37:13.201Z,12.02
2023-03-25T18:39:41.973Z,6.93
2023-03-25T18:42:14.810Z,8.02
2023-03-25T18:44:43.827Z,8.48
2023-03-25T18:47:12.423Z,5.07
2023-03-25T18:49:40.984Z,1.38
2023-03-25T18:52:10.114Z,4.22
2023-03-25T18:54:38.988Z,5.03
2023-03-25T18:57:07.721Z,7.25
2023-03-25T18:59:36.326Z,1.20
2023-03-25T19:02:04.615Z,4.05
2023-03-25T19:04:34.407Z,3.40
2023-03-25T19:07:06.018Z,2.30
2023-03-25T19:09:35.430Z,7.83
2023-03-25T19:12:04.307Z,6.43
2023-03-25T19:14:33.291Z,1.20
2023-03-25T19:17:04.271Z,0.70
2023-03-25T19:19:33.431Z,2.60
2023-03-25T19:22:02.148Z,2.75
2023-03-25T19:24:32.552Z,4.07
2023-03-25T19:27:02.022Z,2.35
2023-03-25T19:29:31.085Z,1.67
2023-03-25T19:32:00.371Z,2.35
2023-03-25T19:34:29.566Z,2.83
2023-03-25T19:37:03.718Z,2.40
2023-03-25T19:39:33.073Z,2.63
2023-03-25T19:42:03.565Z,1.70
2023-03-25T19:44:33.274Z,2.60
2023-03-25T19:47:01.925Z,3.00
2023-03-25T19:49:39.891Z,2.25
2023-03-25T19:52:10.106Z,1.20
2023-03-25T19:54:39.139Z,0.98
2023-03-25T19:57:10.090Z,2.03
2023-03-25T19:59:40.866Z,1.10
2023-03-25T20:02:10.677Z,1.10
2023-03-25T20:04:40.523Z,0.75
2023-03-25T20:07:08.611Z,0.70
2023-03-25T20:09:39.280Z,1.48
2023-03-25T20:12:08.952Z,0.80
2023-03-25T20:14:38.563Z,0.60
2023-03-25T20:17:07.606Z,0.65
2023-03-25T20:19:38.864Z,0.65
2023-03-25T20:22:18.442Z,1.08
2023-03-25T20:24:53.514Z,0.40
2023-03-25T20:27:22.621Z,0.50
2023-03-25T20:29:55.113Z,0.45
2023-03-25T20:32:34.016Z,0.20
2023-03-25T20:35:09.981Z,0.45
2023-03-25T20:37:40.633Z,0.35
2023-03-25T20:40:14.843Z,0.25
2023-03-25T20:42:47.753Z,0.40
2023-03-25T20:47:49.236Z,0.20
2023-03-25T20:50:18.813Z,0.73
2023-03-25T20:52:47.524Z,0.20
2023-03-25T20:55:16.685Z,0.25
2023-03-25T20:57:45.049Z,0.32
2023-03-25T21:00:16.068Z,0.03
2023-03-25T21:02:45.696Z,0.90
2023-03-25T21:05:14.182Z,0.25
2023-03-25T21:07:42.739Z,0.30
2023-03-25T21:10:10.958Z,0.47
2023-03-25T21:12:43.630Z,0.20
2023-03-25T21:15:15.132Z,0.40
2023-03-25T21:17:43.872Z,0.77
2023-03-25T21:20:13.353Z,0.40
2023-03-25T21:22:44.832Z,0.30
2023-03-25T21:25:18.179Z,0.43
2023-03-25T21:27:46.905Z,1.67
2023-03-25T21:30:15.586Z,11.18
2023-03-25T21:32:43.812Z,1.85
2023-03-25T21:35:11.997Z,1.48
2023-03-25T21:37:40.405Z,1.40
2023-03-25T21:40:11.821Z,10.77
2023-03-25T21:42:45.900Z,6.18
2023-03-25T21:45:16.868Z,2.80
2023-03-25T21:47:47.666Z,1.80
2023-03-25T21:50:17.036Z,0.50
2023-03-25T21:52:47.333Z,0.68
2023-03-25T21:55:17.046Z,0.40
2023-03-25T21:57:45.364Z,0.30
2023-03-25T22:00:16.704Z,0.40
2023-03-25T22:02:46.997Z,0.77
2023-03-25T22:05:16.430Z,1.10
2023-03-25T22:07:44.253Z,1.23
2023-03-25T22:10:12.077Z,1.25
2023-03-25T22:12:40.013Z,0.68
2023-03-25T22:15:08.664Z,0.55
2023-03-25T22:17:36.438Z,0.30
2023-03-25T22:20:05.569Z,0.38
2023-03-25T22:22:33.371Z,0.13
2023-03-25T22:25:01.204Z,0.10
2023-03-25T22:27:28.802Z,0.35
2023-03-25T22:29:56.373Z,0.20
2023-03-25T22:32:27.287Z,0.32
2023-03-25T22:34:55.284Z,0.20
2023-03-25T22:37:22.949Z,0.20
2023-03-25T22:39:50.814Z,0.35
2023-03-25T22:42:18.453Z,0.70
2023-03-25T22:44:46.277Z,0.20
2023-03-25T22:47:13.890Z,0.57
2023-03-25T22:49:41.669Z,0.65
2023-03-25T22:52:09.256Z,0.60
2023-03-25T22:54:36.997Z,0.50
2023-03-25T22:57:06.019Z,0.40
2023-03-25T22:59:34.366Z,0.40
2023-03-25T23:02:02.016Z,0.30
2023-03-25T23:04:29.753Z,0.60
2023-03-25T23:07:07.288Z,0.77
2023-03-25T23:09:42.831Z,5.88
2023-03-25T23:12:21.898Z,3.15
2023-03-25T23:14:52.934Z,0.75
2023-03-25T23:17:21.237Z,0.63
2023-03-25T23:19:49.047Z,0.40
2023-03-25T23:22:17.673Z,1.02
2023-03-25T23:24:45.702Z,0.88
2023-03-25T23:27:14.045Z,2.03
2023-03-25T23:29:41.986Z,1.25
2023-03-25T23:32:10.086Z,0.60
2023-03-25T23:34:38.790Z,1.25
2023-03-25T23:37:07.799Z,0.40
2023-03-25T23:39:35.943Z,0.22
2023-03-25T23:42:03.829Z,0.47
2023-03-25T23:44:31.930Z,0.45
2023-03-25T23:46:59.835Z,0.20
2023-03-25T23:49:33.176Z,0.30
2023-03-25T23:52:01.810Z,0.20
2023-03-25T23:54:29.514Z,0.13
2023-03-25T23:56:57.857Z,0.10
2023-03-25T23:59:25.947Z,0.20
